Time;durP1;ratioP1;P1;durP2;ratioP2;P2;SDS_P1;SDS_P2;PMS_P1;PMS_P2;Temp;Humidity;BMP_temperature;BMP_pressure;BME280_temperature;BME280_humidity;BME280_pressure;Samples;Min_cycle;Max_cycle;Signal;HPM_P1;HPM_P2
2022/09/16 00:00:24;;;;;;;1.20;0.85;;;;;;;23.03;52.96;98311.47;5073366;28;20222;-82
2022/09/16 00:02:52;;;;;;;1.08;0.88;;;;;;;23.06;51.73;98308.47;5073403;28;20591;-82
2022/09/16 00:05:20;;;;;;;0.60;0.60;;;;;;;23.12;51.49;98315.44;5074822;28;20234;-82
2022/09/16 00:07:47;;;;;;;0.70;0.70;;;;;;;23.20;50.33;98311.78;5074091;28;20199;-82
2022/09/16 00:10:14;;;;;;;1.77;0.88;;;;;;;23.27;50.73;98310.75;5073202;28;20396;-81
2022/09/16 00:12:43;;;;;;;0.88;0.63;;;;;;;23.44;49.64;98310.19;5073473;28;20210;-82
2022/09/16 00:15:10;;;;;;;0.50;0.50;;;;;;;23.55;50.48;98309.50;5073349;28;20225;-82
2022/09/16 00:17:37;;;;;;;0.70;0.70;;;;;;;23.66;48.48;98308.03;5073652;28;20646;-82
2022/09/16 00:20:05;;;;;;;0.40;0.40;;;;;;;23.76;48.33;98318.00;5073310;28;20606;-82
2022/09/16 00:22:33;;;;;;;0.65;0.65;;;;;;;23.86;48.21;98315.72;5073038;28;20202;-82
2022/09/16 00:24:59;;;;;;;1.73;0.98;;;;;;;23.87;47.84;98309.47;5072872;28;20236;-82
2022/09/16 00:27:26;;;;;;;0.50;0.50;;;;;;;23.84;47.61;98304.69;5073017;28;20194;-82
2022/09/16 00:29:55;;;;;;;0.50;0.50;;;;;;;24.09;47.25;98302.81;5073080;28;20206;-81
2022/09/16 00:32:22;;;;;;;4.80;0.80;;;;;;;24.07;47.14;98310.06;5072816;28;20663;-81
2022/09/16 00:34:50;;;;;;;0.50;0.50;;;;;;;24.07;47.28;98299.63;5072480;28;20207;-82
2022/09/16 00:37:17;;;;;;;1.23;0.73;;;;;;;24.05;48.15;98301.63;5072626;28;20213;-81
2022/09/16 00:39:43;;;;;;;0.82;0.82;;;;;;;24.00;47.33;98295.47;5072926;28;20205;-81
2022/09/16 00:42:12;;;;;;;0.70;0.70;;;;;;;24.07;47.31;98297.00;5072882;28;20666;-82
2022/09/16 00:44:56;;;;;;;1.23;0.90;;;;;;;23.95;47.86;98296.94;5073077;28;20211;-82
2022/09/16 00:47:27;;;;;;;1.10;0.80;;;;;;;24.04;47.60;98294.81;5072567;28;20202;-82
2022/09/16 00:50:00;;;;;;;0.65;0.55;;;;;;;24.02;47.71;98296.06;5072672;28;20600;-82
2022/09/16 00:52:29;;;;;;;0.70;0.63;;;;;;;23.95;47.53;98307.38;5072596;28;20195;-81
2022/09/16 00:54:56;;;;;;;0.93;0.57;;;;;;;23.98;47.53;98305.34;5072623;28;20210;-82
2022/09/16 00:57:23;;;;;;;1.00;0.82;;;;;;;23.90;47.08;98309.03;5072363;28;20199;-82
2022/09/16 00:59:54;;;;;;;1.15;1.00;;;;;;;23.96;48.08;98313.38;5071721;28;20210;-82
2022/09/16 01:02:24;;;;;;;2.63;1.00;;;;;;;23.96;48.54;98302.94;5072036;28;20191;-82
2022/09/16 01:04:55;;;;;;;0.88;0.80;;;;;;;23.83;48.00;98309.09;5071859;28;20648;-82
2022/09/16 01:07:28;;;;;;;0.60;0.57;;;;;;;23.71;48.02;98316.84;5072152;28;20222;-82
2022/09/16 01:09:55;;;;;;;0.52;0.52;;;;;;;23.73;47.77;98320.00;5072230;28;20210;-82
2022/09/16 01:12:23;;;;;;;0.88;0.70;;;;;;;23.76;48.27;98318.00;5072699;28;20272;-82
2022/09/16 01:14:57;;;;;;;2.67;0.73;;;;;;;23.78;49.37;98326.41;5071843;28;20209;-82
2022/09/16 01:17:40;;;;;;;0.73;0.60;;;;;;;23.63;49.23;98324.13;5072409;28;20656;-82
2022/09/16 01:20:34;;;;;;;1.02;0.90;;;;;;;23.56;49.02;98336.41;5072131;28;20218;-82
2022/09/16 01:23:32;;;;;;;1.15;0.63;;;;;;;23.47;48.79;98330.66;5068554;28;20203;-82
2022/09/16 01:26:15;;;;;;;1.40;0.80;;;;;;;23.45;49.58;98338.69;5053785;28;20713;-82
2022/09/16 01:29:08;;;;;;;0.68;0.68;;;;;;;23.45;49.69;98332.69;5071948;28;20596;-82
2022/09/16 01:31:41;;;;;;;1.30;0.77;;;;;;;23.37;50.29;98327.72;5071392;28;20243;-82
2022/09/16 01:34:18;;;;;;;0.80;0.80;;;;;;;23.26;49.87;98329.97;5071985;28;20206;-82
2022/09/16 01:36:53;;;;;;;1.35;0.50;;;;;;;23.23;50.58;98319.97;5071318;28;20230;-81
2022/09/16 01:39:30;;;;;;;1.00;0.73;;;;;;;23.19;51.43;98323.25;5071696;28;20229;-82
2022/09/16 01:42:08;;;;;;;0.68;0.63;;;;;;;23.05;51.45;98327.72;5071051;28;20218;-82
2022/09/16 01:44:44;;;;;;;0.52;0.50;;;;;;;23.02;51.38;98325.53;5071815;28;20207;-82
2022/09/16 01:47:20;;;;;;;0.60;0.60;;;;;;;23.03;51.41;98330.53;5071829;28;20230;-82
2022/09/16 01:49:57;;;;;;;0.70;0.55;;;;;;;22.98;50.67;98334.78;5071628;28;20202;-82
2022/09/16 01:52:34;;;;;;;0.68;0.68;;;;;;;23.07;51.94;98330.94;5071679;28;20202;-81
2022/09/16 01:55:04;;;;;;;0.57;0.52;;;;;;;23.03;50.95;98327.13;5071669;28;20687;-82
2022/09/16 01:57:38;;;;;;;0.40;0.40;;;;;;;22.98;50.36;98332.16;5071628;28;20298;-82
2022/09/16 02:00:09;;;;;;;1.08;0.70;;;;;;;22.99;50.19;98333.78;5071216;28;20218;-82
2022/09/16 02:02:42;;;;;;;0.60;0.60;;;;;;;22.98;50.16;98338.19;5071605;28;20238;-82
2022/09/16 02:05:13;;;;;;;1.02;0.65;;;;;;;22.99;49.68;98341.59;5071517;28;20264;-80
2022/09/16 02:07:45;;;;;;;0.98;0.88;;;;;;;23.09;49.57;98344.53;5072197;28;20662;-80
2022/09/16 02:10:18;;;;;;;0.82;0.70;;;;;;;23.12;49.48;98359.75;5071587;28;20241;-80
2022/09/16 02:12:49;;;;;;;0.50;0.50;;;;;;;23.24;49.50;98354.69;5071592;28;20781;-79
2022/09/16 02:15:21;;;;;;;0.95;0.50;;;;;;;23.32;49.24;98358.84;5071397;28;20222;-81
2022/09/16 02:17:56;;;;;;;0.98;0.77;;;;;;;23.34;49.06;98352.41;5072252;28;20210;-82
2022/09/16 02:20:27;;;;;;;0.80;0.65;;;;;;;23.34;49.19;98351.63;5071011;28;20764;-81
2022/09/16 02:22:58;;;;;;;0.60;0.60;;;;;;;23.34;50.09;98359.44;5071175;28;20195;-82
2022/09/16 02:25:27;;;;;;;0.70;0.68;;;;;;;23.26;48.63;98350.84;5071080;28;20238;-82
2022/09/16 02:27:54;;;;;;;0.50;0.50;;;;;;;23.31;49.41;98357.25;5071139;28;20207;-82
2022/09/16 02:30:23;;;;;;;2.75;1.25;;;;;;;23.28;49.53;98353.25;5070971;28;20726;-82
2022/09/16 02:32:58;;;;;;;0.60;0.60;;;;;;;23.25;50.41;98351.88;5071035;28;20202;-82
2022/09/16 02:35:28;;;;;;;1.02;0.82;;;;;;;23.24;51.53;98345.06;5070662;28;20233;-82
2022/09/16 02:37:59;;;;;;;0.50;0.50;;;;;;;23.14;51.23;98351.75;5070656;28;20199;-82
2022/09/16 02:40:32;;;;;;;1.50;1.02;;;;;;;23.10;51.41;98346.16;5070621;28;20738;-82
2022/09/16 02:42:59;;;;;;;1.00;0.60;;;;;;;22.99;50.88;98352.81;5070746;28;20207;-82
2022/09/16 02:45:38;;;;;;;0.47;0.47;;;;;;;22.94;51.01;98352.63;5070455;28;20276;-82
2022/09/16 02:48:13;;;;;;;0.70;0.70;;;;;;;22.91;51.68;98354.84;5070555;28;20187;-82
2022/09/16 02:50:47;;;;;;;0.63;0.50;;;;;;;22.87;51.95;98351.06;5070717;28;20470;-82
2022/09/16 02:53:23;;;;;;;0.60;0.60;;;;;;;22.73;52.79;98343.28;5070590;28;20602;-81
2022/09/16 02:55:54;;;;;;;1.00;0.77;;;;;;;22.59;53.43;98344.34;5071132;28;20253;-81
2022/09/16 02:58:21;;;;;;;1.45;0.70;;;;;;;22.60;54.25;98335.53;5070724;28;20213;-81
2022/09/16 03:00:54;;;;;;;0.57;0.57;;;;;;;22.53;54.32;98340.75;5070403;28;20222;-81
2022/09/16 03:03:23;;;;;;;1.98;0.77;;;;;;;22.42;53.47;98338.78;5070810;28;20199;-82
2022/09/16 03:06:14;;;;;;;0.90;0.90;;;;;;;22.37;54.69;98344.63;5070076;28;20237;-82
2022/09/16 03:08:43;;;;;;;2.05;0.82;;;;;;;22.32;54.67;98335.84;5068243;28;20583;-82
2022/09/16 03:11:28;;;;;;;0.40;0.40;;;;;;;22.24;54.46;98342.06;5070366;28;20229;-82
2022/09/16 03:14:12;;;;;;;1.13;0.70;;;;;;;22.26;54.01;98345.25;5070332;28;20213;-82
2022/09/16 03:16:49;;;;;;;0.37;0.37;;;;;;;22.25;54.20;98356.69;5070386;28;20229;-81
2022/09/16 03:19:26;;;;;;;0.77;0.60;;;;;;;22.23;54.66;98339.66;5070313;28;20614;-81
2022/09/16 03:22:02;;;;;;;0.68;0.63;;;;;;;22.22;54.36;98346.66;5069986;28;20233;-82
2022/09/16 03:24:38;;;;;;;1.77;0.67;;;;;;;22.15;54.93;98344.03;5072343;28;20208;-81
2022/09/16 03:27:10;;;;;;;0.70;0.60;;;;;;;22.08;55.34;98347.69;5074241;28;20260;-82
2022/09/16 03:29:42;;;;;;;1.08;0.68;;;;;;;22.09;55.20;98338.84;5074939;28;20220;-81
2022/09/16 03:32:19;;;;;;;1.20;0.97;;;;;;;21.98;55.66;98334.28;5074931;28;20198;-81
2022/09/16 03:34:51;;;;;;;2.63;0.80;;;;;;;21.95;55.36;98324.25;5074428;28;20202;-81
2022/09/16 03:37:22;;;;;;;0.63;0.63;;;;;;;21.85;55.15;98330.69;5073852;28;20195;-82
2022/09/16 03:39:52;;;;;;;1.17;0.77;;;;;;;21.80;55.65;98340.09;5074005;28;20272;-82
2022/09/16 03:42:20;;;;;;;0.50;0.50;;;;;;;21.69;56.35;98328.47;5074175;28;20209;-82
2022/09/16 03:44:47;;;;;;;0.57;0.50;;;;;;;21.66;55.38;98334.09;5073859;28;20203;-82
2022/09/16 03:47:14;;;;;;;0.77;0.57;;;;;;;21.68;55.16;98343.28;5073957;28;20240;-82
2022/09/16 03:49:41;;;;;;;1.07;0.80;;;;;;;21.65;55.72;98342.91;5073939;28;20200;-82
2022/09/16 03:52:10;;;;;;;0.60;0.60;;;;;;;21.69;55.33;98342.28;5073598;28;20195;-81
2022/09/16 03:54:37;;;;;;;0.30;0.30;;;;;;;21.76;55.74;98346.69;5073631;28;20212;-81
2022/09/16 03:57:05;;;;;;;0.40;0.40;;;;;;;21.68;54.97;98343.28;5073453;28;20221;-81
2022/09/16 03:59:32;;;;;;;0.60;0.60;;;;;;;21.69;55.36;98354.50;5074019;28;20206;-81
2022/09/16 04:01:58;;;;;;;1.33;0.80;;;;;;;21.72;55.06;98354.09;5073761;28;20229;-82
2022/09/16 04:04:25;;;;;;;0.80;0.80;;;;;;;21.71;55.05;98357.72;5074361;28;20202;-81
2022/09/16 04:06:52;;;;;;;4.37;0.87;;;;;;;21.74;54.35;98357.31;5073778;28;20622;-81
2022/09/16 04:09:20;;;;;;;1.67;1.17;;;;;;;21.76;55.02;98365.72;5074153;28;20618;-82
2022/09/16 04:11:47;;;;;;;0.50;0.50;;;;;;;21.77;54.63;98380.31;5073474;28;20740;-82
2022/09/16 04:14:14;;;;;;;0.47;0.47;;;;;;;21.90;55.69;98372.53;5073727;28;20201;-82
2022/09/16 04:16:41;;;;;;;1.57;0.87;;;;;;;21.95;54.06;98373.72;5073075;28;20221;-82
2022/09/16 04:19:11;;;;;;;0.60;0.53;;;;;;;22.07;54.34;98366.88;5072954;28;20210;-82
2022/09/16 04:21:39;;;;;;;0.80;0.53;;;;;;;22.22;54.63;98369.28;5073109;28;20240;-82
2022/09/16 04:24:06;;;;;;;2.27;1.03;;;;;;;22.24;53.24;98378.50;5073117;28;20213;-81
2022/09/16 04:26:34;;;;;;;1.80;1.03;;;;;;;22.27;53.43;98375.50;5073238;28;20612;-82
2022/09/16 04:29:01;;;;;;;1.53;0.80;;;;;;;22.29;53.98;98370.09;5072724;28;20692;-82
2022/09/16 04:31:28;;;;;;;0.73;0.57;;;;;;;22.35;53.79;98374.50;5072951;28;20217;-82
2022/09/16 04:33:56;;;;;;;1.30;0.70;;;;;;;22.37;53.75;98381.09;5073733;28;20206;-82
2022/09/16 04:36:23;;;;;;;1.23;0.70;;;;;;;22.44;55.77;98377.69;5073858;28;20280;-82
2022/09/16 04:38:50;;;;;;;0.53;0.53;;;;;;;22.54;54.74;98381.47;5073694;28;20301;-82
2022/09/16 04:41:19;;;;;;;1.05;1.00;;;;;;;22.61;56.00;98389.25;5072459;28;20231;-82
2022/09/16 04:43:52;;;;;;;1.47;0.50;;;;;;;22.63;54.83;98376.81;5073496;28;20422;-83
2022/09/16 04:46:19;;;;;;;0.87;0.80;;;;;;;22.54;54.32;98378.03;5072906;28;20233;-81
2022/09/16 04:48:47;;;;;;;0.67;0.67;;;;;;;22.53;54.10;98381.66;5072979;28;20203;-80
2022/09/16 04:51:14;;;;;;;1.02;0.70;;;;;;;22.56;54.32;98389.84;5072934;28;20309;-84
2022/09/16 04:53:43;;;;;;;0.68;0.60;;;;;;;22.65;55.12;98398.25;5072881;28;20206;-84
2022/09/16 04:56:14;;;;;;;2.65;1.00;;;;;;;22.65;54.78;98395.63;5072862;28;20279;-83
2022/09/16 04:58:41;;;;;;;1.05;0.70;;;;;;;22.70;56.16;98408.06;5072936;28;20276;-83
2022/09/16 05:01:12;;;;;;;1.20;0.97;;;;;;;22.70;55.39;98408.84;5072491;28;20214;-83
2022/09/16 05:03:39;;;;;;;1.05;0.77;;;;;;;22.68;54.84;98413.47;5072256;28;20260;-83
2022/09/16 05:06:09;;;;;;;0.77;0.75;;;;;;;22.77;55.02;98407.03;5072116;28;20288;-83
2022/09/16 05:08:36;;;;;;;1.77;0.80;;;;;;;22.85;54.97;98413.03;5072237;28;20205;-83
2022/09/16 05:11:05;;;;;;;0.88;0.68;;;;;;;22.92;55.20;98416.38;5072408;28;20229;-84
2022/09/16 05:13:32;;;;;;;0.93;0.60;;;;;;;22.97;54.11;98416.59;5072611;28;20689;-83
2022/09/16 05:16:02;;;;;;;2.80;0.80;;;;;;;22.98;55.49;98410.38;5071965;28;20219;-83
2022/09/16 05:18:30;;;;;;;1.33;0.70;;;;;;;23.16;54.74;98420.94;5072391;28;20215;-82
2022/09/16 05:20:59;;;;;;;4.03;0.95;;;;;;;23.28;55.67;98415.88;5072406;28;20226;-83
2022/09/16 05:23:27;;;;;;;1.05;0.95;;;;;;;23.36;54.20;98412.19;5072525;28;20206;-83
2022/09/16 05:25:54;;;;;;;0.90;0.68;;;;;;;23.47;54.75;98403.69;5072060;28;20222;-82
2022/09/16 05:28:21;;;;;;;1.77;1.23;;;;;;;23.54;54.98;98409.69;5072185;28;20241;-82
2022/09/16 05:30:48;;;;;;;0.55;0.55;;;;;;;23.63;56.85;98413.63;5071583;28;20211;-84
2022/09/16 05:33:15;;;;;;;0.57;0.57;;;;;;;23.61;56.00;98415.66;5071624;28;20222;-85
2022/09/16 05:35:44;;;;;;;2.45;0.75;;;;;;;23.59;55.44;98417.69;5071911;28;20310;-86
2022/09/16 05:38:12;;;;;;;0.75;0.70;;;;;;;23.73;57.14;98424.41;5071400;28;20233;-84
2022/09/16 05:40:39;;;;;;;1.23;0.85;;;;;;;23.89;57.27;98424.94;5071315;28;20223;-84
2022/09/16 05:43:06;;;;;;;2.10;0.98;;;;;;;23.85;56.47;98434.19;5071477;28;20589;-84
2022/09/16 05:45:33;;;;;;;0.98;0.70;;;;;;;23.86;57.53;98428.75;5071373;28;20219;-84
2022/09/16 05:48:00;;;;;;;2.20;1.13;;;;;;;23.81;58.36;98438.25;5070440;28;20238;-84
2022/09/16 05:50:27;;;;;;;2.13;1.08;;;;;;;23.79;58.23;98435.81;5071293;28;20222;-84
2022/09/16 05:52:55;;;;;;;0.75;0.75;;;;;;;23.93;58.41;98428.69;5071341;28;20203;-84
2022/09/16 05:55:22;;;;;;;0.98;0.80;;;;;;;23.92;58.65;98432.34;5071264;28;20222;-84
2022/09/16 05:57:49;;;;;;;0.93;0.75;;;;;;;23.97;58.15;98423.84;5071023;28;20205;-84
2022/09/16 06:00:16;;;;;;;0.57;0.57;;;;;;;24.32;60.19;98424.97;5071081;28;20226;-84
2022/09/16 06:02:43;;;;;;;1.90;0.90;;;;;;;24.36;57.77;98438.38;5070928;28;20214;-84
2022/09/16 06:05:09;;;;;;;1.13;0.93;;;;;;;24.33;57.78;98449.25;5070643;28;20219;-84
2022/09/16 06:07:36;;;;;;;1.48;0.90;;;;;;;24.15;57.81;98439.59;5070635;28;20689;-84
2022/09/16 06:10:06;;;;;;;0.90;0.63;;;;;;;24.08;58.73;98437.00;5070641;28;20234;-84
2022/09/16 06:12:33;;;;;;;1.83;0.65;;;;;;;24.10;58.22;98440.22;5070790;28;20573;-84
2022/09/16 06:15:00;;;;;;;1.63;0.93;;;;;;;24.28;60.50;98436.03;5070757;28;20203;-83
2022/09/16 06:17:27;;;;;;;1.45;1.05;;;;;;;24.31;59.08;98425.16;5071295;28;20211;-84
2022/09/16 06:19:54;;;;;;;1.02;0.80;;;;;;;24.45;58.88;98431.88;5070877;28;20203;-84
2022/09/16 06:22:21;;;;;;;1.38;1.00;;;;;;;24.74;57.98;98440.03;5070464;28;20667;-84
2022/09/16 06:24:48;;;;;;;0.80;0.80;;;;;;;24.97;57.22;98432.31;5070705;28;20556;-84
2022/09/16 06:27:16;;;;;;;1.88;1.00;;;;;;;25.33;60.53;98438.53;5070449;28;20246;-84
2022/09/16 06:29:43;;;;;;;1.05;0.70;;;;;;;25.69;58.16;98437.63;5070986;28;20199;-83
2022/09/16 06:32:10;;;;;;;1.48;0.90;;;;;;;25.72;57.24;98447.66;5071209;28;20214;-85
2022/09/16 06:34:37;;;;;;;3.03;0.85;;;;;;;25.93;57.61;98448.16;5070940;28;20210;-84
2022/09/16 06:37:05;;;;;;;0.85;0.70;;;;;;;25.99;55.31;98447.25;5070274;28;20230;-85
2022/09/16 06:39:32;;;;;;;0.98;0.68;;;;;;;26.04;53.75;98439.53;5070471;28;20211;-84
2022/09/16 06:41:59;;;;;;;0.93;0.90;;;;;;;26.12;53.76;98443.63;5070312;28;20599;-84
2022/09/16 06:44:27;;;;;;;0.73;0.73;;;;;;;26.22;54.64;98451.72;5070582;28;20202;-85
2022/09/16 06:46:54;;;;;;;0.70;0.70;;;;;;;26.33;52.64;98448.31;5070333;28;20245;-84
2022/09/16 06:49:21;;;;;;;0.80;0.70;;;;;;;26.50;53.71;98447.63;5070637;28;20202;-85
2022/09/16 06:51:48;;;;;;;0.60;0.60;;;;;;;26.63;53.66;98447.38;5070253;28;20222;-84
2022/09/16 06:54:14;;;;;;;0.75;0.73;;;;;;;26.74;52.72;98453.66;5070555;28;20621;-84
2022/09/16 06:56:41;;;;;;;2.20;0.93;;;;;;;26.94;53.35;98458.53;5070001;28;20218;-85
2022/09/16 06:59:13;;;;;;;0.70;0.60;;;;;;;27.05;50.61;98461.09;5070130;28;20301;-84
2022/09/16 07:01:41;;;;;;;0.70;0.70;;;;;;;27.61;51.04;98471.88;5069973;28;20218;-84
2022/09/16 07:04:12;;;;;;;0.82;0.73;;;;;;;28.01;49.64;98478.03;5070464;28;20214;-85
2022/09/16 07:06:39;;;;;;;1.38;0.90;;;;;;;28.34;51.36;98478.03;5069689;28;20229;-84
2022/09/16 07:09:06;;;;;;;1.48;1.25;;;;;;;28.50;48.82;98489.59;5070132;28;20290;-85
2022/09/16 07:11:33;;;;;;;1.58;0.75;;;;;;;28.52;48.49;98479.63;5069833;28;20273;-83
2022/09/16 07:14:01;;;;;;;0.65;0.60;;;;;;;28.75;47.13;98480.44;5070224;28;20201;-82
2022/09/16 07:16:28;;;;;;;0.65;0.65;;;;;;;28.87;48.04;98481.13;5069915;28;20268;-83
2022/09/16 07:18:58;;;;;;;0.63;0.57;;;;;;;28.94;49.22;98486.19;5070383;28;20210;-83
2022/09/16 07:21:28;;;;;;;0.80;0.80;;;;;;;28.93;45.26;98489.88;5070957;28;20223;-83
2022/09/16 07:23:57;;;;;;;1.67;0.73;;;;;;;29.07;46.37;98497.19;5073718;28;20203;-83
2022/09/16 07:26:26;;;;;;;0.57;0.57;;;;;;;29.33;46.45;98490.38;5071837;28;20771;-83
2022/09/16 07:28:54;;;;;;;1.05;0.88;;;;;;;29.54;44.71;98490.56;5071212;28;20235;-82
2022/09/16 07:31:24;;;;;;;0.70;0.65;;;;;;;29.73;45.90;98498.94;5070779;28;20222;-83
2022/09/16 07:33:53;;;;;;;0.75;0.60;;;;;;;29.92;43.78;98497.53;5071022;28;20195;-83
2022/09/16 07:36:23;;;;;;;0.63;0.63;;;;;;;30.15;44.84;98490.31;5070212;28;20223;-83
2022/09/16 07:38:51;;;;;;;1.48;0.68;;;;;;;30.27;44.03;98496.22;5070034;28;20699;-83
2022/09/16 07:41:20;;;;;;;1.67;0.60;;;;;;;29.98;43.23;98491.25;5069980;28;20254;-83
2022/09/16 07:43:47;;;;;;;0.80;0.80;;;;;;;29.99;43.48;98487.59;5070216;28;20230;-82
2022/09/16 07:46:16;;;;;;;0.70;0.70;;;;;;;29.63;43.57;98483.03;5069788;28;20717;-83
2022/09/16 07:48:44;;;;;;;1.42;0.85;;;;;;;29.73;42.80;98480.47;5069724;28;20593;-83
2022/09/16 07:51:13;;;;;;;0.82;0.82;;;;;;;29.95;43.65;98489.13;5071687;28;20789;-83
2022/09/16 07:53:42;;;;;;;0.55;0.55;;;;;;;30.44;42.70;98482.91;5071621;28;20203;-83
2022/09/16 07:56:11;;;;;;;0.68;0.68;;;;;;;30.42;41.92;98496.31;5070388;28;20257;-83
2022/09/16 07:58:38;;;;;;;0.80;0.50;;;;;;;30.84;44.38;98481.56;5070549;28;20216;-83
2022/09/16 08:01:06;;;;;;;0.85;0.57;;;;;;;30.89;43.85;98478.91;5070726;28;20694;-82
2022/09/16 08:03:34;;;;;;;0.52;0.52;;;;;;;30.93;40.65;98487.13;5070083;28;20203;-82
2022/09/16 08:06:02;;;;;;;0.93;0.70;;;;;;;30.66;41.72;98480.09;5070173;28;20229;-82
2022/09/16 08:08:30;;;;;;;0.73;0.65;;;;;;;30.95;42.46;98488.47;5069806;28;20238;-82
2022/09/16 08:10:59;;;;;;;0.95;0.80;;;;;;;30.41;41.89;98494.75;5072629;28;20214;-82
2022/09/16 08:13:28;;;;;;;0.70;0.70;;;;;;;30.29;40.03;98490.72;5073368;28;20195;-82
2022/09/16 08:15:55;;;;;;;0.65;0.65;;;;;;;29.92;41.79;98491.47;5073258;28;20234;-82
2022/09/16 08:18:22;;;;;;;0.60;0.60;;;;;;;30.05;42.30;98495.50;5072971;28;20198;-83
2022/09/16 08:20:49;;;;;;;0.60;0.60;;;;;;;30.07;42.65;98498.69;5073598;28;20250;-82
2022/09/16 08:23:17;;;;;;;0.90;0.70;;;;;;;30.18;44.83;98501.16;5072944;28;20686;-82
2022/09/16 08:25:44;;;;;;;0.47;0.47;;;;;;;30.41;42.01;98494.75;5072991;28;20214;-82
2022/09/16 08:28:14;;;;;;;0.80;0.55;;;;;;;30.64;40.98;98492.78;5072804;28;20241;-83
2022/09/16 08:30:42;;;;;;;0.45;0.45;;;;;;;30.72;41.01;98479.09;5072783;28;20233;-85
2022/09/16 08:33:09;;;;;;;0.52;0.52;;;;;;;30.91;41.05;98479.44;5072711;28;20623;-83
2022/09/16 08:35:37;;;;;;;1.30;0.65;;;;;;;31.04;39.20;98470.25;5072941;28;20227;-83
2022/09/16 08:38:04;;;;;;;0.70;0.70;;;;;;;31.00;38.99;98474.47;5072607;28;20767;-83
2022/09/16 08:40:35;;;;;;;1.35;0.60;;;;;;;31.21;38.60;98464.75;5072786;28;20211;-82
2022/09/16 08:43:11;;;;;;;0.68;0.68;;;;;;;31.16;38.70;98457.63;5072847;28;20195;-82
2022/09/16 08:45:44;;;;;;;0.52;0.52;;;;;;;31.51;39.49;98450.84;5072522;28;20230;-82
2022/09/16 08:48:27;;;;;;;1.17;0.85;;;;;;;31.87;37.23;98448.19;5072511;28;20230;-82
2022/09/16 08:50:57;;;;;;;1.58;0.82;;;;;;;31.95;38.41;98460.91;5072944;28;20230;-82
2022/09/16 08:53:32;;;;;;;0.70;0.70;;;;;;;31.92;35.90;98454.31;5072691;28;20199;-83
2022/09/16 08:56:03;;;;;;;0.70;0.65;;;;;;;31.88;37.61;98455.84;5072323;28;20272;-82
2022/09/16 08:58:37;;;;;;;0.70;0.70;;;;;;;32.16;38.74;98451.91;5072673;28;20199;-83
2022/09/16 09:01:16;;;;;;;0.82;0.77;;;;;;;32.11;38.71;98465.13;5072493;28;20221;-82
2022/09/16 09:03:45;;;;;;;0.85;0.70;;;;;;;32.36;40.58;98458.22;5072337;28;20205;-82
2022/09/16 09:06:28;;;;;;;0.90;0.60;;;;;;;32.32;38.14;98451.84;5072495;28;20211;-83
2022/09/16 09:09:00;;;;;;;0.50;0.50;;;;;;;32.15;37.50;98442.38;5072412;28;20624;-82
2022/09/16 09:11:35;;;;;;;0.60;0.57;;;;;;;32.20;37.43;98445.03;5072044;28;20219;-82
2022/09/16 09:14:18;;;;;;;0.68;0.50;;;;;;;32.28;37.36;98451.59;5072007;28;20225;-82
2022/09/16 09:16:53;;;;;;;2.58;0.60;;;;;;;32.04;36.70;98448.75;5071858;28;20235;-85
2022/09/16 09:19:39;;;;;;;0.57;0.57;;;;;;;32.01;35.52;98451.91;5072586;28;20217;-87
2022/09/16 09:22:19;;;;;;;0.60;0.60;;;;;;;32.15;37.04;98442.38;5069944;28;20222;-83
2022/09/16 09:25:16;;;;;;;0.40;0.40;;;;;;;32.29;37.13;98450.56;5072058;28;20203;-83
2022/09/16 09:27:54;;;;;;;1.50;0.93;;;;;;;32.71;37.64;98443.31;5071653;28;20226;-82
2022/09/16 09:30:23;;;;;;;0.50;0.50;;;;;;;32.92;36.63;98444.78;5071977;28;20309;-82
2022/09/16 09:33:15;;;;;;;1.60;0.82;;;;;;;33.09;35.85;98452.41;5072116;28;20233;-82
2022/09/16 09:35:57;;;;;;;0.50;0.50;;;;;;;33.24;37.16;98454.19;5071611;28;20218;-82
2022/09/16 09:38:43;;;;;;;0.50;0.50;;;;;;;33.63;37.24;98442.78;5071968;28;20206;-82
2022/09/16 09:41:14;;;;;;;0.75;0.75;;;;;;;33.78;37.09;98455.94;5071977;28;20241;-82
2022/09/16 09:43:44;;;;;;;0.85;0.60;;;;;;;33.64;36.51;98450.47;5071937;28;20674;-83
2022/09/16 09:46:17;;;;;;;1.25;0.50;;;;;;;33.39;36.53;98447.97;5071623;28;20788;-82
2022/09/16 09:48:50;;;;;;;0.63;0.52;;;;;;;33.61;35.64;98444.94;5071076;28;20215;-83
2022/09/16 09:51:24;;;;;;;1.10;0.60;;;;;;;33.53;34.10;98449.75;5071364;28;20222;-83
2022/09/16 09:53:54;;;;;;;0.68;0.57;;;;;;;33.62;37.37;98441.22;5071338;28;20206;-83
2022/09/16 09:56:25;;;;;;;0.82;0.55;;;;;;;33.56;34.26;98446.56;5071540;28;20243;-83
2022/09/16 09:59:02;;;;;;;0.50;0.50;;;;;;;33.49;34.51;98440.75;5071415;28;20206;-83
2022/09/16 10:01:29;;;;;;;0.75;0.50;;;;;;;33.75;34.67;98443.25;5071176;28;20771;-83
2022/09/16 10:03:59;;;;;;;0.65;0.65;;;;;;;33.76;36.19;98432.34;5071024;28;20198;-82
2022/09/16 10:06:29;;;;;;;1.40;0.70;;;;;;;33.95;34.02;98440.41;5070912;28;20222;-82
2022/09/16 10:08:57;;;;;;;1.33;0.70;;;;;;;34.11;33.50;98430.44;5071083;28;20268;-83
2022/09/16 10:11:27;;;;;;;0.60;0.60;;;;;;;33.97;34.59;98427.63;5070679;28;20226;-83
2022/09/16 10:13:57;;;;;;;2.25;0.80;;;;;;;33.57;36.21;98426.94;5070972;28;20202;-83
2022/09/16 10:16:30;;;;;;;0.70;0.70;;;;;;;33.44;34.82;98424.09;5070742;28;20280;-82
2022/09/16 10:19:02;;;;;;;0.60;0.60;;;;;;;33.33;35.68;98428.66;5071279;28;20294;-83
2022/09/16 10:21:41;;;;;;;0.90;0.70;;;;;;;32.84;35.44;98437.41;5070457;28;20834;-82
2022/09/16 10:24:27;;;;;;;0.60;0.60;;;;;;;32.45;36.93;98444.19;5070700;28;20202;-83
2022/09/16 10:26:55;;;;;;;0.68;0.65;;;;;;;32.31;35.86;98450.28;5070787;28;20249;-82
2022/09/16 10:29:21;;;;;;;0.60;0.60;;;;;;;32.21;38.38;98451.88;5070599;28;20237;-82
2022/09/16 10:31:49;;;;;;;0.98;0.88;;;;;;;32.29;36.58;98452.38;5070428;28;20249;-83
2022/09/16 10:34:22;;;;;;;0.88;0.80;;;;;;;31.97;36.18;98437.63;5070322;28;20202;-82
2022/09/16 10:37:00;;;;;;;0.60;0.60;;;;;;;31.97;36.58;98424.41;5070333;28;20321;-83
2022/09/16 10:39:28;;;;;;;0.75;0.73;;;;;;;32.24;36.81;98424.91;5070751;28;20217;-82
2022/09/16 10:41:55;;;;;;;1.65;1.13;;;;;;;32.32;37.69;98426.22;5070483;28;20619;-82
2022/09/16 10:44:25;;;;;;;2.10;0.70;;;;;;;32.37;37.19;98422.75;5070536;28;20650;-83
2022/09/16 10:46:55;;;;;;;0.55;0.55;;;;;;;32.16;37.11;98412.22;5070286;28;20218;-82
2022/09/16 10:49:29;;;;;;;1.77;0.88;;;;;;;32.00;36.21;98413.31;5070237;28;20237;-82
2022/09/16 10:52:07;;;;;;;0.77;0.65;;;;;;;31.74;38.44;98415.19;5070431;28;20223;-82
2022/09/16 10:54:34;;;;;;;0.65;0.65;;;;;;;31.56;38.05;98419.94;5070354;28;20213;-82
2022/09/16 10:57:01;;;;;;;1.90;0.98;;;;;;;31.66;37.26;98424.41;5070184;28;20230;-82
2022/09/16 10:59:28;;;;;;;1.02;0.60;;;;;;;31.63;37.51;98414.38;5070210;28;20209;-82
2022/09/16 11:02:04;;;;;;;0.75;0.70;;;;;;;31.41;38.94;98411.19;5070591;28;20819;-82
2022/09/16 11:04:53;;;;;;;0.95;0.75;;;;;;;31.30;38.89;98410.34;5070498;28;20586;-83
2022/09/16 11:07:34;;;;;;;0.77;0.70;;;;;;;31.09;38.96;98398.97;5070157;28;20230;-85
2022/09/16 11:10:11;;;;;;;1.13;0.85;;;;;;;31.10;39.14;98411.94;5070181;28;20234;-82
2022/09/16 11:13:09;;;;;;;0.70;0.70;;;;;;;31.10;38.16;98419.84;5070418;28;20191;-84
2022/09/16 11:15:51;;;;;;;0.93;0.60;;;;;;;30.69;38.14;98413.63;5069755;28;20490;-84
2022/09/16 11:18:30;;;;;;;4.30;0.90;;;;;;;30.62;39.87;98418.34;5069961;28;20202;-85
2022/09/16 11:21:15;;;;;;;0.70;0.60;;;;;;;30.36;40.31;98412.16;5069877;28;20226;-84
2022/09/16 11:24:10;;;;;;;1.10;1.00;;;;;;;30.41;40.16;98410.34;5070231;28;20225;-85
2022/09/16 11:26:45;;;;;;;0.60;0.60;;;;;;;30.42;40.28;98404.00;5070492;28;20226;-84
2022/09/16 11:29:40;;;;;;;0.75;0.70;;;;;;;30.36;40.82;98398.97;5069816;28;20606;-84
2022/09/16 11:32:14;;;;;;;0.50;0.50;;;;;;;30.39;41.37;98396.59;5070031;28;20222;-84
2022/09/16 11:35:01;;;;;;;0.80;0.80;;;;;;;30.17;40.43;98390.69;5070065;28;20620;-84
2022/09/16 11:37:38;;;;;;;1.42;0.95;;;;;;;30.16;41.00;98391.72;5069855;28;20206;-84
2022/09/16 11:40:28;;;;;;;1.45;0.70;;;;;;;29.90;40.45;98394.19;5069857;28;20233;-84
2022/09/16 11:43:09;;;;;;;1.00;0.70;;;;;;;29.79;41.50;98397.81;5069646;28;20222;-84
2022/09/16 11:45:46;;;;;;;2.47;0.90;;;;;;;29.76;41.36;98393.06;5071955;28;20230;-84
2022/09/16 11:48:37;;;;;;;1.08;0.77;;;;;;;29.78;42.50;98380.41;5073672;28;20199;-84
2022/09/16 11:51:12;;;;;;;0.60;0.60;;;;;;;29.61;42.47;98374.44;5069342;28;20389;-84
2022/09/16 11:54:03;;;;;;;1.23;0.95;;;;;;;29.73;42.73;98372.44;5073735;28;20682;-84